Time;durP1;ratioP1;P1;durP2;ratioP2;P2;SDS_P1;SDS_P2;PMS_P1;PMS_P2;Temp;Humidity;BMP_temperature;BMP_pressure;BME280_temperature;BME280_humidity;BME280_pressure;Samples;Min_cycle;Max_cycle;Signal;HPM_P1;HPM_P2
2024/01/19 00:00:07;;;;;;;7.38;5.20;;;-1.10;99.90;;;;;;5070963;28;20204;-79
2024/01/19 00:02:35;;;;;;;10.80;6.10;;;-1.10;99.90;;;;;;5071816;28;20262;-79
2024/01/19 00:05:03;;;;;;;8.80;4.95;;;-1.10;99.90;;;;;;5071649;28;20205;-79
2024/01/19 00:07:29;;;;;;;10.00;6.40;;;-1.10;99.90;;;;;;5071672;28;20227;-79
2024/01/19 00:09:58;;;;;;;4.95;3.55;;;-1.10;99.90;;;;;;5072362;28;20552;-79
2024/01/19 00:12:26;;;;;;;8.60;5.53;;;-1.10;99.90;;;;;;5072710;28;20220;-80
2024/01/19 00:14:53;;;;;;;6.38;4.97;;;-1.10;99.90;;;;;;5072555;28;20296;-80
2024/01/19 00:17:20;;;;;;;6.22;4.35;;;-1.10;99.90;;;;;;5068844;28;20250;-80
2024/01/19 00:19:50;;;;;;;7.63;3.60;;;-1.10;99.90;;;;;;5064436;28;20638;-80
2024/01/19 00:22:17;;;;;;;7.65;5.38;;;-1.00;99.90;;;;;;5061460;28;20240;-79
2024/01/19 00:24:44;;;;;;;7.75;4.35;;;-1.10;99.90;;;;;;5063488;28;20216;-79
2024/01/19 00:27:10;;;;;;;7.35;4.95;;;-1.10;99.90;;;;;;5062570;28;20216;-80
2024/01/19 00:29:39;;;;;;;5.90;4.25;;;-1.00;99.90;;;;;;5066852;28;20673;-79
2024/01/19 00:32:06;;;;;;;7.05;4.15;;;-1.00;99.90;;;;;;5076909;28;20780;-79
2024/01/19 00:34:33;;;;;;;9.77;4.15;;;-1.00;99.90;;;;;;5076984;28;20614;-80
2024/01/19 00:37:00;;;;;;;7.97;6.13;;;-1.00;99.90;;;;;;5077054;28;20204;-79
2024/01/19 00:39:27;;;;;;;7.68;4.50;;;-1.00;99.90;;;;;;5077170;28;20734;-79
2024/01/19 00:41:53;;;;;;;7.45;4.28;;;-1.00;99.90;;;;;;5077536;28;20297;-80
2024/01/19 00:44:20;;;;;;;8.13;5.10;;;-1.00;99.90;;;;;;5076846;28;20585;-80
2024/01/19 00:46:49;;;;;;;6.30;4.40;;;-1.00;99.90;;;;;;5077115;28;20525;-80
2024/01/19 00:49:16;;;;;;;5.40;4.90;;;-1.00;99.90;;;;;;5077254;28;20212;-80
2024/01/19 00:51:43;;;;;;;5.43;4.25;;;-1.00;99.90;;;;;;5077395;28;20235;-80
2024/01/19 00:54:10;;;;;;;6.82;5.28;;;-1.00;99.90;;;;;;5069893;28;20590;-80
2024/01/19 00:56:36;;;;;;;6.25;4.18;;;-1.00;99.90;;;;;;5066045;28;20571;-80
2024/01/19 00:59:03;;;;;;;11.63;5.00;;;-1.00;99.90;;;;;;5066570;28;20223;-79
2024/01/19 01:01:31;;;;;;;12.38;5.28;;;-1.00;99.90;;;;;;5064114;28;20213;-79
2024/01/19 01:04:01;;;;;;;6.90;4.60;;;-1.00;99.90;;;;;;5066994;28;20208;-80
2024/01/19 01:06:28;;;;;;;5.68;5.18;;;-1.00;99.90;;;;;;5064061;28;20228;-79
2024/01/19 01:08:55;;;;;;;16.33;4.47;;;-1.00;99.90;;;;;;5067058;28;20223;-79
2024/01/19 01:11:21;;;;;;;7.50;4.65;;;-1.00;99.90;;;;;;5072915;28;20216;-79
2024/01/19 01:13:48;;;;;;;8.35;4.05;;;-1.00;99.90;;;;;;5071966;28;20420;-79
2024/01/19 01:16:15;;;;;;;10.23;4.10;;;-1.00;99.90;;;;;;5069319;28;20212;-79
2024/01/19 01:18:42;;;;;;;5.57;3.92;;;-1.00;99.90;;;;;;5074759;28;20216;-79
2024/01/19 01:21:10;;;;;;;11.82;5.70;;;-1.00;99.90;;;;;;5077012;28;20212;-79
2024/01/19 01:23:36;;;;;;;6.53;3.55;;;-1.00;99.90;;;;;;5081351;28;20235;-79
2024/01/19 01:26:03;;;;;;;6.07;5.28;;;-1.00;99.90;;;;;;5073163;28;20211;-79
2024/01/19 01:28:30;;;;;;;5.70;4.20;;;-1.00;99.90;;;;;;5062989;28;20221;-79
2024/01/19 01:30:57;;;;;;;7.60;4.53;;;-1.00;99.90;;;;;;5066074;28;20203;-79
2024/01/19 01:33:23;;;;;;;5.43;4.30;;;-1.00;99.90;;;;;;5064418;28;20246;-79
2024/01/19 01:35:50;;;;;;;5.45;4.55;;;-1.00;99.90;;;;;;5072961;28;20208;-79
2024/01/19 01:38:18;;;;;;;8.55;5.28;;;-1.00;99.90;;;;;;5075357;28;20219;-79
2024/01/19 01:40:45;;;;;;;6.68;4.95;;;-1.10;99.90;;;;;;5070713;28;20209;-80
2024/01/19 01:43:22;;;;;;;9.88;5.18;;;-1.10;99.90;;;;;;5064482;28;20244;-79
2024/01/19 01:45:48;;;;;;;18.77;5.53;;;-1.10;99.90;;;;;;5070917;28;20208;-80
2024/01/19 01:48:15;;;;;;;16.00;8.88;;;-1.00;99.90;;;;;;5067330;28;20217;-80
2024/01/19 01:50:43;;;;;;;9.52;6.70;;;-1.10;99.90;;;;;;5073832;28;20208;-80
2024/01/19 01:53:10;;;;;;;4.07;3.47;;;-1.10;99.90;;;;;;5062796;28;20231;-80
2024/01/19 01:55:38;;;;;;;7.85;5.53;;;-1.10;99.90;;;;;;5062037;28;20208;-80
2024/01/19 01:58:06;;;;;;;5.22;4.60;;;-1.10;99.90;;;;;;5066398;28;20674;-80
2024/01/19 02:00:33;;;;;;;11.63;5.50;;;-1.10;99.90;;;;;;5061132;28;20220;-80
2024/01/19 02:03:01;;;;;;;7.57;4.10;;;-1.10;99.90;;;;;;5073483;28;20228;-79
2024/01/19 02:05:28;;;;;;;7.03;5.57;;;-1.20;99.90;;;;;;5075761;28;20248;-80
2024/01/19 02:07:55;;;;;;;8.00;5.75;;;-1.20;99.90;;;;;;5069622;28;20235;-79
2024/01/19 02:10:21;;;;;;;7.93;5.65;;;-1.10;99.90;;;;;;5066486;28;20205;-80
2024/01/19 02:12:50;;;;;;;6.40;5.28;;;-1.10;99.90;;;;;;5068385;28;20235;-80
2024/01/19 02:15:20;;;;;;;7.40;4.07;;;-1.20;99.90;;;;;;5072365;28;20205;-80
2024/01/19 02:17:47;;;;;;;6.82;4.20;;;-1.20;99.90;;;;;;5062374;28;20636;-80
2024/01/19 02:20:14;;;;;;;7.40;5.07;;;-1.20;99.90;;;;;;5061455;28;20214;-80
2024/01/19 02:22:43;;;;;;;7.43;4.32;;;-1.20;99.90;;;;;;5060657;28;20224;-80
2024/01/19 02:25:12;;;;;;;4.63;4.18;;;-1.20;99.90;;;;;;5067516;28;20204;-80
2024/01/19 02:27:38;;;;;;;6.72;4.47;;;-1.20;99.90;;;;;;5066100;28;20228;-80
2024/01/19 02:30:08;;;;;;;10.30;5.72;;;-1.20;99.90;;;;;;5075179;28;20201;-80
2024/01/19 02:32:34;;;;;;;4.43;3.78;;;-1.20;99.90;;;;;;5069759;28;20240;-78
2024/01/19 02:35:01;;;;;;;5.75;4.50;;;-1.20;99.90;;;;;;5066730;28;20197;-79
2024/01/19 02:37:28;;;;;;;7.72;4.80;;;-1.20;99.90;;;;;;5075374;28;20215;-79
2024/01/19 02:39:55;;;;;;;8.30;7.18;;;-1.20;99.90;;;;;;5074545;28;20274;-79
2024/01/19 02:42:23;;;;;;;7.05;5.25;;;-1.20;99.90;;;;;;5075450;28;20235;-80
2024/01/19 02:44:50;;;;;;;8.18;4.47;;;-1.20;99.90;;;;;;5074409;28;20208;-79
2024/01/19 02:47:17;;;;;;;8.65;5.38;;;-1.20;99.90;;;;;;5075440;28;20204;-80
2024/01/19 02:49:43;;;;;;;7.88;4.68;;;-1.20;99.90;;;;;;5077149;28;20223;-80
2024/01/19 02:52:10;;;;;;;6.38;4.85;;;-1.20;99.90;;;;;;5076566;28;20220;-79
2024/01/19 02:54:37;;;;;;;6.97;4.85;;;-1.20;99.90;;;;;;5075169;28;20204;-79
2024/01/19 02:57:04;;;;;;;7.97;6.95;;;-1.20;99.90;;;;;;5075346;28;20209;-79
2024/01/19 02:59:32;;;;;;;4.30;3.80;;;-1.20;99.90;;;;;;5075488;28;20204;-79
2024/01/19 03:01:59;;;;;;;7.05;4.95;;;-1.20;99.90;;;;;;5073338;28;20228;-80
2024/01/19 03:04:26;;;;;;;7.18;4.82;;;-1.20;99.90;;;;;;5058498;28;20219;-80
2024/01/19 03:06:53;;;;;;;4.38;3.67;;;-1.20;99.90;;;;;;5060709;28;20209;-79
2024/01/19 03:09:20;;;;;;;7.47;4.88;;;-1.30;99.90;;;;;;5068670;28;20255;-80
2024/01/19 03:11:47;;;;;;;8.98;4.45;;;-1.30;99.90;;;;;;5073060;28;20235;-80
2024/01/19 03:14:13;;;;;;;9.50;6.70;;;-1.30;99.90;;;;;;5071804;28;20209;-79
2024/01/19 03:16:43;;;;;;;10.65;5.30;;;-1.50;99.90;;;;;;5073012;28;20208;-79
2024/01/19 03:19:10;;;;;;;9.98;4.68;;;-1.50;99.90;;;;;;5072771;28;20201;-79
2024/01/19 03:21:37;;;;;;;7.70;4.72;;;-1.60;99.90;;;;;;5073924;28;20228;-79
2024/01/19 03:24:04;;;;;;;8.13;6.40;;;-1.70;99.90;;;;;;5073819;28;20204;-80
2024/01/19 03:26:30;;;;;;;10.73;5.55;;;-1.70;99.90;;;;;;5074764;28;20207;-79
2024/01/19 03:28:57;;;;;;;9.75;6.30;;;-1.80;99.90;;;;;;5073702;28;20231;-79
2024/01/19 03:31:24;;;;;;;5.70;4.55;;;-1.90;99.90;;;;;;5075705;28;20609;-79
2024/01/19 03:33:52;;;;;;;5.60;4.30;;;-1.90;99.90;;;;;;5067350;28;20205;-80
2024/01/19 03:36:19;;;;;;;6.03;4.15;;;-2.00;99.90;;;;;;5068204;28;20213;-79
2024/01/19 03:38:45;;;;;;;6.32;5.72;;;-2.10;99.90;;;;;;5074020;28;20219;-79
2024/01/19 03:41:12;;;;;;;8.07;5.25;;;-2.10;99.90;;;;;;5060641;28;20201;-80
2024/01/19 03:43:41;;;;;;;11.63;4.32;;;-2.20;99.90;;;;;;5061420;28;20209;-80
2024/01/19 03:46:08;;;;;;;6.55;4.93;;;-2.20;99.90;;;;;;5062687;28;20200;-80
2024/01/19 03:48:35;;;;;;;5.97;3.83;;;-2.20;99.90;;;;;;5077702;28;20221;-80
2024/01/19 03:51:03;;;;;;;7.00;5.55;;;-2.30;99.90;;;;;;5080083;28;20181;-81
2024/01/19 03:53:30;;;;;;;6.28;5.63;;;-2.30;99.90;;;;;;5079059;28;20217;-82
2024/01/19 03:55:56;;;;;;;6.78;5.80;;;-2.40;99.90;;;;;;5087529;28;20206;-81
2024/01/19 03:58:23;;;;;;;4.88;3.80;;;-2.40;99.90;;;;;;5094797;28;20211;-79
2024/01/19 04:00:50;;;;;;;7.28;5.68;;;-2.40;99.90;;;;;;5095999;28;20267;-78
2024/01/19 04:03:19;;;;;;;5.68;3.83;;;-2.40;99.90;;;;;;5094013;28;20229;-78
2024/01/19 04:05:46;;;;;;;8.20;4.70;;;-2.40;99.90;;;;;;5093286;28;20223;-79
2024/01/19 04:08:14;;;;;;;7.80;4.95;;;-2.40;99.90;;;;;;5097623;28;20197;-80
2024/01/19 04:10:41;;;;;;;8.30;4.35;;;-2.40;99.90;;;;;;5097889;28;20196;-81
2024/01/19 04:13:08;;;;;;;5.90;3.92;;;-2.40;99.90;;;;;;5098330;28;20214;-80
2024/01/19 04:15:34;;;;;;;7.20;4.75;;;-2.40;99.90;;;;;;5091749;28;20192;-81
2024/01/19 04:18:02;;;;;;;6.63;4.55;;;-2.40;99.90;;;;;;5083887;28;20200;-81
2024/01/19 04:20:28;;;;;;;8.25;5.75;;;-2.30;99.90;;;;;;5098538;28;20180;-80
2024/01/19 04:22:55;;;;;;;7.07;4.18;;;-2.40;99.90;;;;;;5098714;28;20210;-81
2024/01/19 04:25:23;;;;;;;5.35;4.18;;;-2.50;99.90;;;;;;5097875;28;20263;-81
2024/01/19 04:27:51;;;;;;;7.05;3.78;;;-2.40;99.90;;;;;;5094837;28;20264;-82
2024/01/19 04:30:18;;;;;;;6.53;4.82;;;-2.50;99.90;;;;;;5094748;28;20200;-81
2024/01/19 04:32:43;;;;;;;9.18;4.57;;;-2.40;99.90;;;;;;5096412;28;20200;-80
2024/01/19 04:35:10;;;;;;;10.60;4.93;;;-2.40;99.90;;;;;;5096694;28;20189;-83
2024/01/19 04:37:37;;;;;;;11.48;5.93;;;-2.40;99.90;;;;;;5099225;28;20181;-80
2024/01/19 04:40:04;;;;;;;6.18;3.90;;;-2.40;99.90;;;;;;5097233;28;20267;-80
2024/01/19 04:42:31;;;;;;;3.83;3.50;;;-2.40;99.90;;;;;;5092884;28;20230;-79
2024/01/19 04:44:58;;;;;;;5.60;3.80;;;-2.30;99.90;;;;;;5090627;28;20196;-79
2024/01/19 04:47:25;;;;;;;5.85;5.30;;;-2.30;99.90;;;;;;5084712;28;20196;-80
2024/01/19 04:49:52;;;;;;;4.25;3.85;;;-2.30;99.90;;;;;;5082001;28;20240;-80
2024/01/19 04:52:19;;;;;;;5.55;4.40;;;-2.30;99.90;;;;;;5076674;28;20717;-79
2024/01/19 04:54:45;;;;;;;5.47;3.42;;;-2.30;99.90;;;;;;5083647;28;20201;-80
2024/01/19 04:57:12;;;;;;;6.00;3.63;;;-2.30;99.90;;;;;;5090464;28;20212;-80
2024/01/19 04:59:40;;;;;;;8.68;5.80;;;-2.20;99.90;;;;;;5087321;28;20212;-81
2024/01/19 05:02:07;;;;;;;8.70;5.45;;;-2.20;99.90;;;;;;5080803;28;20232;-80
2024/01/19 05:04:33;;;;;;;7.25;3.97;;;-2.10;99.90;;;;;;5082073;28;20700;-80
2024/01/19 05:07:00;;;;;;;6.63;3.78;;;-2.10;99.90;;;;;;5085348;28;20208;-80
2024/01/19 05:09:27;;;;;;;6.90;4.72;;;-2.10;99.90;;;;;;5067227;28;20221;-80
2024/01/19 05:11:54;;;;;;;5.72;4.85;;;-2.10;99.90;;;;;;5066180;28;20229;-80
2024/01/19 05:14:21;;;;;;;5.07;4.43;;;-2.10;99.90;;;;;;5076786;28;20208;-80
2024/01/19 05:16:49;;;;;;;7.75;5.10;;;-2.10;99.90;;;;;;5085442;28;20215;-80
2024/01/19 05:19:15;;;;;;;11.43;4.90;;;-2.10;99.90;;;;;;5066249;28;20229;-80
2024/01/19 05:21:42;;;;;;;5.53;3.47;;;-2.10;99.90;;;;;;5066010;28;20224;-80
2024/01/19 05:24:09;;;;;;;8.93;4.47;;;-2.10;99.90;;;;;;5064627;28;20206;-80
2024/01/19 05:26:36;;;;;;;9.30;4.03;;;-2.20;99.90;;;;;;5066389;28;20219;-80
2024/01/19 05:29:02;;;;;;;9.30;5.43;;;-2.20;99.90;;;;;;5066654;28;20229;-80
2024/01/19 05:31:29;;;;;;;7.50;4.40;;;-2.20;99.90;;;;;;5065880;28;20198;-79
2024/01/19 05:33:57;;;;;;;6.18;3.95;;;-2.20;99.90;;;;;;5062210;28;20207;-80
2024/01/19 05:36:24;;;;;;;9.57;4.65;;;-2.20;99.90;;;;;;5069866;28;20204;-80
2024/01/19 05:38:51;;;;;;;7.20;5.50;;;-2.20;99.90;;;;;;5085436;28;20207;-80
2024/01/19 05:41:20;;;;;;;11.05;7.00;;;-2.20;99.90;;;;;;5068709;28;20227;-80
2024/01/19 05:43:47;;;;;;;5.68;3.35;;;-2.10;99.90;;;;;;5086150;28;20201;-79
2024/01/19 05:46:14;;;;;;;5.45;4.60;;;-2.10;99.90;;;;;;5084640;28;20220;-80
2024/01/19 05:48:41;;;;;;;9.15;5.63;;;-2.10;99.90;;;;;;5085398;28;20234;-79
2024/01/19 05:51:13;;;;;;;6.30;4.50;;;-2.10;99.90;;;;;;5084513;28;20681;-80
2024/01/19 05:53:39;;;;;;;6.22;5.63;;;-2.10;99.90;;;;;;5085012;28;20208;-80
2024/01/19 05:56:06;;;;;;;6.20;5.03;;;-2.10;99.90;;;;;;5082970;28;20208;-80
2024/01/19 05:58:33;;;;;;;7.50;3.97;;;-2.10;99.90;;;;;;5083790;28;20573;-80
2024/01/19 06:01:02;;;;;;;9.98;5.63;;;-2.10;99.90;;;;;;5082960;28;20211;-80
2024/01/19 06:03:29;;;;;;;10.32;6.53;;;-2.10;99.90;;;;;;5082347;28;20247;-80
2024/01/19 06:05:56;;;;;;;6.38;4.13;;;-2.10;99.90;;;;;;5084635;28;20208;-80
2024/01/19 06:08:24;;;;;;;5.93;3.22;;;-2.10;99.90;;;;;;5076787;28;20215;-80
2024/01/19 06:10:51;;;;;;;9.68;4.78;;;-2.10;99.90;;;;;;5083856;28;20205;-80
2024/01/19 06:13:18;;;;;;;11.15;5.47;;;-2.10;99.90;;;;;;5081800;28;20243;-80
2024/01/19 06:15:44;;;;;;;7.57;5.10;;;-2.20;99.90;;;;;;5083631;28;20228;-79
2024/01/19 06:18:11;;;;;;;9.45;5.72;;;-2.10;99.90;;;;;;5082238;28;20579;-80
2024/01/19 06:20:41;;;;;;;8.13;4.20;;;-2.10;99.90;;;;;;5086671;28;20211;-79
2024/01/19 06:23:07;;;;;;;6.85;4.85;;;-2.10;99.90;;;;;;5090100;28;20220;-80
2024/01/19 06:25:36;;;;;;;4.82;4.32;;;-2.10;99.90;;;;;;5093829;28;20196;-80
2024/01/19 06:28:04;;;;;;;6.88;4.22;;;-2.20;99.90;;;;;;5090828;28;20196;-79
2024/01/19 06:30:31;;;;;;;6.35;5.70;;;-2.20;99.90;;;;;;5085859;28;20220;-79
2024/01/19 06:32:57;;;;;;;5.88;3.78;;;-2.10;99.90;;;;;;5086015;28;20216;-79
2024/01/19 06:35:24;;;;;;;8.82;4.38;;;-2.10;99.90;;;;;;5085237;28;20200;-79
2024/01/19 06:37:51;;;;;;;6.75;5.70;;;-2.10;99.90;;;;;;5085141;28;20212;-79
2024/01/19 06:40:18;;;;;;;9.95;7.50;;;-2.10;99.90;;;;;;5079378;28;20408;-79
2024/01/19 06:42:46;;;;;;;9.82;6.68;;;-2.00;99.90;;;;;;5079359;28;20240;-79
2024/01/19 06:45:16;;;;;;;5.00;4.60;;;-2.00;99.90;;;;;;5081652;28;20213;-80
2024/01/19 06:47:42;;;;;;;11.98;6.00;;;-2.00;99.90;;;;;;5081877;28;20204;-80
2024/01/19 06:50:10;;;;;;;6.32;4.50;;;-2.00;99.90;;;;;;5081718;28;20216;-79
2024/01/19 06:52:37;;;;;;;4.35;3.95;;;-2.00;99.90;;;;;;5085704;28;20577;-79
2024/01/19 06:55:04;;;;;;;9.65;5.45;;;-1.90;99.90;;;;;;5084297;28;20197;-79
2024/01/19 06:57:31;;;;;;;8.55;4.72;;;-1.90;99.90;;;;;;5084361;28;20211;-80
2024/01/19 06:59:59;;;;;;;7.22;4.38;;;-1.90;99.90;;;;;;5079760;28;20204;-80
2024/01/19 07:02:26;;;;;;;8.93;3.65;;;-1.90;99.90;;;;;;5078957;28;20800;-80
2024/01/19 07:04:53;;;;;;;17.60;6.05;;;-1.90;99.90;;;;;;5076041;28;20196;-80
2024/01/19 07:07:19;;;;;;;15.95;7.72;;;-1.90;99.90;;;;;;5078942;28;20204;-80
2024/01/19 07:09:46;;;;;;;5.28;4.18;;;-1.90;99.90;;;;;;5081077;28;20302;-80
2024/01/19 07:12:16;;;;;;;12.88;5.72;;;-1.80;99.90;;;;;;5081253;28;20250;-80
2024/01/19 07:14:43;;;;;;;5.43;3.53;;;-1.80;99.90;;;;;;5081102;28;20223;-79
2024/01/19 07:17:11;;;;;;;6.13;4.30;;;-1.90;99.90;;;;;;5076464;28;20207;-79
2024/01/19 07:19:38;;;;;;;6.82;4.22;;;-1.90;99.90;;;;;;5089590;28;20192;-79
2024/01/19 07:22:05;;;;;;;7.50;5.70;;;-1.90;99.90;;;;;;5095025;28;20222;-79
2024/01/19 07:24:32;;;;;;;9.55;5.15;;;-1.80;99.90;;;;;;5094315;28;20248;-79
2024/01/19 07:26:59;;;;;;;5.57;4.30;;;-1.90;99.90;;;;;;5091923;28;20247;-79
2024/01/19 07:29:26;;;;;;;7.70;6.30;;;-1.90;99.90;;;;;;5091504;28;20234;-79
2024/01/19 07:31:52;;;;;;;8.45;5.00;;;-1.90;99.90;;;;;;5089523;28;20454;-79
2024/01/19 07:34:20;;;;;;;8.10;5.40;;;-1.90;99.90;;;;;;5089432;28;20204;-79
2024/01/19 07:36:47;;;;;;;8.25;4.55;;;-1.90;99.90;;;;;;5092673;28;20200;-78
2024/01/19 07:39:14;;;;;;;6.25;4.68;;;-1.90;99.90;;;;;;5090722;28;20240;-79
2024/01/19 07:41:41;;;;;;;5.13;4.55;;;-1.90;99.90;;;;;;5091849;28;20220;-79
2024/01/19 07:44:08;;;;;;;8.27;5.90;;;-1.90;99.90;;;;;;5089492;28;20254;-79
2024/01/19 07:46:35;;;;;;;7.95;4.13;;;-1.90;99.90;;;;;;5091833;28;20203;-79
2024/01/19 07:49:02;;;;;;;9.18;5.60;;;-1.90;99.90;;;;;;5090295;28;20204;-79
2024/01/19 07:51:30;;;;;;;5.35;4.82;;;-1.90;99.90;;;;;;5094640;28;20213;-79
2024/01/19 07:53:57;;;;;;;7.80;4.18;;;-1.80;99.90;;;;;;5095270;28;20223;-78
2024/01/19 07:56:24;;;;;;;14.60;6.60;;;-1.80;99.90;;;;;;5094848;28;20204;-79
2024/01/19 07:58:51;;;;;;;4.43;3.33;;;-1.70;99.90;;;;;;5095364;28;20196;-79
2024/01/19 08:01:18;;;;;;;10.75;4.38;;;-1.70;99.90;;;;;;5089493;28;20215;-79
2024/01/19 08:03:44;;;;;;;5.53;4.45;;;-1.60;99.90;;;;;;5091170;28;20260;-79
2024/01/19 08:06:11;;;;;;;23.88;7.57;;;-1.50;99.90;;;;;;5089160;28;20189;-79
2024/01/19 08:08:39;;;;;;;7.32;4.50;;;-1.30;99.90;;;;;;5090396;28;20200;-79
2024/01/19 08:11:06;;;;;;;10.57;5.50;;;-1.00;99.90;;;;;;5091951;28;20216;-79
2024/01/19 08:13:33;;;;;;;7.00;4.65;;;-0.70;99.90;;;;;;5087045;28;20224;-79
2024/01/19 08:16:00;;;;;;;9.95;4.78;;;-0.50;99.90;;;;;;5093870;28;20268;-78
2024/01/19 08:18:33;;;;;;;8.05;4.65;;;-0.30;99.90;;;;;;5093527;28;20212;-79
2024/01/19 08:21:00;;;;;;;7.70;4.53;;;-0.20;99.90;;;;;;5093035;28;20196;-79
2024/01/19 08:23:27;;;;;;;6.55;4.28;;;-0.10;99.90;;;;;;5093458;28;20234;-79
2024/01/19 08:25:55;;;;;;;5.53;4.35;;;0.20;99.90;;;;;;5093729;28;20200;-78
2024/01/19 08:28:22;;;;;;;9.45;5.47;;;0.50;99.90;;;;;;5091258;28;20208;-79
2024/01/19 08:30:49;;;;;;;4.70;4.22;;;1.40;99.90;;;;;;5093951;28;20219;-79
2024/01/19 08:33:15;;;;;;;14.45;6.88;;;2.50;99.90;;;;;;5092837;28;20228;-79
2024/01/19 08:35:43;;;;;;;7.43;4.95;;;3.90;99.90;;;;;;5095697;28;20199;-79
2024/01/19 08:38:09;;;;;;;7.72;4.57;;;5.30;99.90;;;;;;5095570;28;20204;-79
2024/01/19 08:40:36;;;;;;;5.85;4.88;;;6.30;99.90;;;;;;5087390;28;20193;-79
2024/01/19 08:43:04;;;;;;;6.90;5.10;;;7.10;99.90;;;;;;5090476;28;20223;-79
2024/01/19 08:45:31;;;;;;;8.55;4.85;;;7.10;99.90;;;;;;5088962;28;22337;-79
2024/01/19 08:47:58;;;;;;;8.38;5.88;;;6.50;99.90;;;;;;5088778;28;20220;-79
2024/01/19 08:50:24;;;;;;;6.28;4.78;;;5.90;99.90;;;;;;5087641;28;20217;-79
2024/01/19 08:52:51;;;;;;;7.10;4.47;;;5.10;99.90;;;;;;5096815;28;20276;-79
2024/01/19 08:55:18;;;;;;;5.70;5.10;;;4.20;99.90;;;;;;5097485;28;20212;-79
2024/01/19 08:57:45;;;;;;;5.55;5.05;;;3.40;99.90;;;;;;5097826;28;20200;-80
2024/01/19 09:00:14;;;;;;;5.20;4.45;;;2.90;99.90;;;;;;5097627;28;20198;-78
2024/01/19 09:02:41;;;;;;;5.22;4.82;;;2.50;99.90;;;;;;5089196;28;20269;-80
2024/01/19 09:05:11;;;;;;;8.15;5.55;;;2.70;99.90;;;;;;5081743;28;20201;-79
2024/01/19 09:07:37;;;;;;;7.43;5.25;;;3.80;99.90;;;;;;5080123;28;20239;-79
2024/01/19 09:10:05;;;;;;;9.45;6.22;;;4.70;99.90;;;;;;5078145;28;20227;-79
2024/01/19 09:12:32;;;;;;;8.65;5.95;;;5.50;99.90;;;;;;5088999;28;20235;-79
2024/01/19 09:14:58;;;;;;;7.25;4.78;;;6.30;99.90;;;;;;5093789;28;20215;-78
2024/01/19 09:17:26;;;;;;;7.85;4.38;;;6.60;99.90;;;;;;5094318;28;20208;-80
2024/01/19 09:19:53;;;;;;;5.75;4.32;;;6.70;99.90;;;;;;5095190;28;20193;-79
2024/01/19 09:22:20;;;;;;;10.55;5.50;;;7.00;99.90;;;;;;5092205;28;20243;-79
2024/01/19 09:24:46;;;;;;;6.47;5.20;;;7.30;99.90;;;;;;5094795;28;20200;-79
2024/01/19 09:27:13;;;;;;;6.28;4.95;;;8.40;99.90;;;;;;5095330;28;20216;-79
2024/01/19 09:29:40;;;;;;;6.13;5.40;;;10.40;99.90;;;;;;5095541;28;20200;-80
2024/01/19 09:32:07;;;;;;;7.38;5.07;;;12.70;99.90;;;;;;5094889;28;20233;-79
2024/01/19 09:34:35;;;;;;;6.95;5.22;;;14.20;97.50;;;;;;5095427;28;20209;-80
2024/01/19 09:37:03;;;;;;;7.05;4.93;;;14.50;96.10;;;;;;5093452;28;20209;-80
2024/01/19 09:39:29;;;;;;;8.80;5.38;;;14.20;94.80;;;;;;5093605;28;20208;-79
2024/01/19 09:42:03;;;;;;;8.18;5.90;;;13.10;95.20;;;;;;5092393;28;20221;-79
2024/01/19 09:44:36;;;;;;;4.78;4.25;;;11.90;96.30;;;;;;5086426;28;20207;-79
2024/01/19 09:47:21;;;;;;;3.83;3.42;;;10.10;97.00;;;;;;5093303;28;20230;-79
2024/01/19 09:50:01;;;;;;;3.95;3.55;;;8.50;99.00;;;;;;5093161;28;20215;-79
2024/01/19 09:52:41;;;;;;;6.32;3.40;;;6.80;99.90;;;;;;5090922;28;20290;-79
2024/01/19 09:55:09;;;;;;;6.38;3.95;;;5.70;99.90;;;;;;5090973;28;20201;-79
2024/01/19 09:57:44;;;;;;;6.00;3.63;;;4.70;99.90;;;;;;5089522;28;20205;-79
2024/01/19 10:00:12;;;;;;;4.20;3.50;;;4.10;99.90;;;;;;5082765;28;20247;-79
2024/01/19 10:02:44;;;;;;;5.05;3.03;;;3.60;99.90;;;;;;5070060;28;20247;-78
2024/01/19 10:05:13;;;;;;;4.35;3.60;;;3.20;99.90;;;;;;5077224;28;20279;-78
2024/01/19 10:07:42;;;;;;;5.47;3.53;;;3.00;99.90;;;;;;5077359;28;20201;-79
2024/01/19 10:10:09;;;;;;;4.97;3.70;;;2.90;99.90;;;;;;5076650;28;20225;-79
2024/01/19 10:12:37;;;;;;;10.63;3.60;;;2.80;99.90;;;;;;5085053;28;20223;-79
2024/01/19 10:15:05;;;;;;;4.25;3.50;;;2.60;99.90;;;;;;5088220;28;20207;-79
2024/01/19 10:17:32;;;;;;;6.68;3.45;;;2.50;99.90;;;;;;5083374;28;20215;-78
2024/01/19 10:19:59;;;;;;;5.20;3.55;;;2.50;99.90;;;;;;5085268;28;20271;-79
2024/01/19 10:22:29;;;;;;;7.32;4.05;;;2.40;99.90;;;;;;5082452;28;20233;-78
2024/01/19 10:25:01;;;;;;;9.82;4.20;;;2.40;99.90;;;;;;5092331;28;20302;-79
2024/01/19 10:27:42;;;;;;;6.15;3.20;;;2.40;99.90;;;;;;5082868;28;20228;-79
2024/01/19 10:30:14;;;;;;;4.13;3.35;;;2.30;99.90;;;;;;5087019;28;20241;-79
2024/01/19 10:32:41;;;;;;;3.92;3.25;;;2.20;99.90;;;;;;5088368;28;20226;-79
2024/01/19 10:35:10;;;;;;;5.30;3.15;;;2.30;99.90;;;;;;5085499;28;20203;-79
2024/01/19 10:37:38;;;;;;;5.65;3.67;;;2.20;99.90;;;;;;5092858;28;20209;-79
2024/01/19 10:40:16;;;;;;;4.55;2.88;;;2.10;99.90;;;;;;5092754;28;20206;-79
2024/01/19 10:42:44;;;;;;;5.78;3.70;;;2.40;99.90;;;;;;5088665;28;20227;-78
2024/01/19 10:45:21;;;;;;;3.83;3.15;;;3.30;99.90;;;;;;5089965;28;20207;-79
2024/01/19 10:47:49;;;;;;;5.43;3.83;;;5.30;99.90;;;;;;5088203;28;20219;-79
2024/01/19 10:50:17;;;;;;;2.88;2.58;;;6.30;99.90;;;;;;5086381;28;20227;-79
2024/01/19 10:52:47;;;;;;;4.15;3.33;;;6.70;99.90;;;;;;5089357;28;20204;-79
2024/01/19 10:55:21;;;;;;;4.85;3.40;;;6.80;99.90;;;;;;5082363;28;20200;-79
2024/01/19 10:57:51;;;;;;;6.07;4.05;;;6.30;99.90;;;;;;5086758;28;20215;-79
2024/01/19 11:00:23;;;;;;;6.13;4.00;;;6.40;99.90;;;;;;5085501;28;20181;-79
2024/01/19 11:02:51;;;;;;;4.28;3.65;;;7.60;99.90;;;;;;5093308;28;20236;-79
2024/01/19 11:05:20;;;;;;;4.22;3.55;;;8.90;99.90;;;;;;5075342;28;20269;-80
2024/01/19 11:07:50;;;;;;;5.47;3.08;;;9.90;99.90;;;;;;5070231;28;20240;-80
2024/01/19 11:10:18;;;;;;;5.10;3.53;;;10.00;99.50;;;;;;5070685;28;20228;-79
2024/01/19 11:12:51;;;;;;;5.13;3.40;;;9.20;99.90;;;;;;5078693;28;22077;-79
2024/01/19 11:15:28;;;;;;;3.60;3.25;;;8.00;99.90;;;;;;5077032;28;20800;-79
2024/01/19 11:17:57;;;;;;;5.55;3.30;;;6.80;99.90;;;;;;5076811;28;20399;-79
2024/01/19 11:20:24;;;;;;;5.13;3.78;;;5.90;99.90;;;;;;5072820;28;20206;-79
2024/01/19 11:22:53;;;;;;;7.18;3.60;;;5.20;99.90;;;;;;5076278;28;20227;-79
2024/01/19 11:25:27;;;;;;;3.50;2.92;;;4.40;99.90;;;;;;5075933;28;20219;-79
2024/01/19 11:28:02;;;;;;;4.38;3.65;;;4.10;99.90;;;;;;5072745;28;20264;-79
2024/01/19 11:30:47;;;;;;;4.70;3.30;;;5.60;99.90;;;;;;5068092;28;20225;-79
2024/01/19 11:33:18;;;;;;;6.13;3.05;;;7.80;99.90;;;;;;5064600;28;20228;-79
2024/01/19 11:35:48;;;;;;;5.43;3.55;;;9.10;99.90;;;;;;5066324;28;20206;-80
2024/01/19 11:38:45;;;;;;;5.50;3.80;;;10.50;98.90;;;;;;5069391;28;20235;-79
2024/01/19 11:41:46;;;;;;;4.13;3.65;;;11.90;97.30;;;;;;5070839;28;20239;-79
2024/01/19 11:44:41;;;;;;;3.70;3.40;;;10.80;97.70;;;;;;5065339;28;20215;-79
2024/01/19 11:47:08;;;;;;;5.68;3.55;;;10.50;98.50;;;;;;5066035;28;20233;-79
2024/01/19 11:49:48;;;;;;;7.47;4.25;;;10.80;97.80;;;;;;5068755;28;20214;-79
2024/01/19 11:52:45;;;;;;;4.68;3.90;;;10.00;97.60;;;;;;5076838;28;20227;-79
2024/01/19 11:55:47;;;;;;;4.78;3.75;;;7.80;99.90;;;;;;4994827;28;20216;-80
2024/01/19 11:58:30;;;;;;;5.10;3.45;;;6.40;99.90;;;;;;5076051;28;20210;-79
2024/01/19 12:00:58;;;;;;;4.70;2.92;;;5.40;99.90;;;;;;5076505;28;20196;-78
2024/01/19 12:03:25;;;;;;;6.13;3.50;;;4.70;99.90;;;;;;5074437;28;20519;-78
2024/01/19 12:05:55;;;;;;;5.72;3.53;;;4.30;99.90;;;;;;5074222;28;20209;-78
2024/01/19 12:08:22;;;;;;;3.97;3.55;;;4.70;99.90;;;;;;5068743;28;20205;-78
2024/01/19 12:11:01;;;;;;;4.75;3.30;;;6.00;99.90;;;;;;5064617;28;20220;-79
2024/01/19 12:13:28;;;;;;;3.75;2.88;;;7.30;99.90;;;;;;5064290;28;20225;-79
2024/01/19 12:15:55;;;;;;;6.53;3.90;;;8.20;99.90;;;;;;5065873;28;20212;-77
2024/01/19 12:18:22;;;;;;;3.10;2.78;;;8.90;99.90;;;;;;5067449;28;20240;-79
2024/01/19 12:20:53;;;;;;;2.92;2.42;;;9.50;98.80;;;;;;5072389;28;20685;-79
2024/01/19 12:23:20;;;;;;;3.17;2.70;;;9.90;97.60;;;;;;5068726;28;20305;-79
2024/01/19 12:25:47;;;;;;;2.45;2.05;;;9.80;97.00;;;;;;5064334;28;20213;-80
2024/01/19 12:28:16;;;;;;;2.92;2.63;;;9.80;97.20;;;;;;5066696;28;20236;-79
2024/01/19 12:30:44;;;;;;;2.50;2.13;;;9.90;97.80;;;;;;5067495;28;20219;-79
2024/01/19 12:33:15;;;;;;;2.35;1.92;;;9.80;97.30;;;;;;5067330;28;20217;-79
2024/01/19 12:35:42;;;;;;;2.78;2.55;;;9.60;96.00;;;;;;5066048;28;20210;-80
2024/01/19 12:38:10;;;;;;;3.00;2.60;;;9.40;96.90;;;;;;5066532;28;20201;-79
2024/01/19 12:40:38;;;;;;;2.83;2.38;;;9.10;97.30;;;;;;5065127;28;20216;-80
2024/01/19 12:43:05;;;;;;;2.05;1.85;;;8.90;97.50;;;;;;5068622;28;20227;-81
2024/01/19 12:45:35;;;;;;;4.57;1.90;;;8.50;97.10;;;;;;5069674;28;20209;-80
2024/01/19 12:48:02;;;;;;;2.72;2.50;;;8.20;98.00;;;;;;5078195;28;20689;-80
2024/01/19 12:50:28;;;;;;;2.90;1.95;;;8.20;97.20;;;;;;5067837;28;20203;-79
2024/01/19 12:52:55;;;;;;;2.60;2.38;;;8.20;97.90;;;;;;5077019;28;20327;-80